sensor_id;sensor_type;location;lat;lon;timestamp;temperature;humidity
12384;DHT22;6256;63.808;20.336;2023-03-01T00:00:03;0.20;99.90
12384;DHT22;6256;63.808;20.336;2023-03-01T00:02:29;0.20;99.90
12384;DHT22;6256;63.808;20.336;2023-03-01T00:04:54;0.10;99.90
12384;DHT22;6256;63.808;20.336;2023-03-01T00:07:20;0.10;99.90
12384;DHT22;6256;63.808;20.336;2023-03-01T00:09:45;0.10;99.90
12384;DHT22;6256;63.808;20.336;2023-03-01T00:12:11;0.10;99.90
12384;DHT22;6256;63.808;20.336;2023-03-01T00:14:37;0.10;99.90
12384;DHT22;6256;63.808;20.336;2023-03-01T00:17:03;0.10;99.90
12384;DHT22;6256;63.808;20.336;2023-03-01T00:19:28;0.10;99.90
12384;DHT22;6256;63.808;20.336;2023-03-01T00:21:54;0.20;99.90
12384;DHT22;6256;63.808;20.336;2023-03-01T00:24:20;0.20;99.90
12384;DHT22;6256;63.808;20.336;2023-03-01T00:26:45;0.20;99.90
12384;DHT22;6256;63.808;20.336;2023-03-01T00:29:12;0.20;99.90
12384;DHT22;6256;63.808;20.336;2023-03-01T00:31:37;0.10;99.90
12384;DHT22;6256;63.808;20.336;2023-03-01T00:34:04;0.10;99.90
12384;DHT22;6256;63.808;20.336;2023-03-01T00:36:33;0.00;99.90
12384;DHT22;6256;63.808;20.336;2023-03-01T00:39:00;-0.10;99.90
12384;DHT22;6256;63.808;20.336;2023-03-01T00:41:26;-0.20;99.90
12384;DHT22;6256;63.808;20.336;2023-03-01T00:43:52;-0.30;99.90
12384;DHT22;6256;63.808;20.336;2023-03-01T00:46:21;-0.30;99.90
12384;DHT22;6256;63.808;20.336;2023-03-01T00:48:47;-0.30;99.90
12384;DHT22;6256;63.808;20.336;2023-03-01T00:51:25;-0.20;99.90
12384;DHT22;6256;63.808;20.336;2023-03-01T00:53:53;0.10;99.90
12384;DHT22;6256;63.808;20.336;2023-03-01T00:56:20;0.40;99.90
12384;DHT22;6256;63.808;20.336;2023-03-01T00:58:46;0.50;99.90
12384;DHT22;6256;63.808;20.336;2023-03-01T01:01:21;0.60;99.90
12384;DHT22;6256;63.808;20.336;2023-03-01T01:03:55;0.70;99.90
12384;DHT22;6256;63.808;20.336;2023-03-01T01:06:25;0.70;99.90
12384;DHT22;6256;63.808;20.336;2023-03-01T01:08:52;0.70;99.90
12384;DHT22;6256;63.808;20.336;2023-03-01T01:11:19;0.90;99.90
12384;DHT22;6256;63.808;20.336;2023-03-01T01:13:46;0.90;99.90
12384;DHT22;6256;63.808;20.336;2023-03-01T01:16:13;1.00;99.90
12384;DHT22;6256;63.808;20.336;2023-03-01T01:18:40;1.00;99.90
12384;DHT22;6256;63.808;20.336;2023-03-01T01:21:11;1.00;99.90
12384;DHT22;6256;63.808;20.336;2023-03-01T01:23:38;1.10;99.90
12384;DHT22;6256;63.808;20.336;2023-03-01T01:26:10;1.20;99.90
12384;DHT22;6256;63.808;20.336;2023-03-01T01:28:36;1.30;99.90
12384;DHT22;6256;63.808;20.336;2023-03-01T01:31:06;1.30;99.90
12384;DHT22;6256;63.808;20.336;2023-03-01T01:33:32;1.30;99.90
12384;DHT22;6256;63.808;20.336;2023-03-01T01:35:58;1.30;99.90
12384;DHT22;6256;63.808;20.336;2023-03-01T01:38:24;1.40;99.90
12384;DHT22;6256;63.808;20.336;2023-03-01T01:40:50;1.30;99.90
12384;DHT22;6256;63.808;20.336;2023-03-01T01:43:23;1.30;99.90
12384;DHT22;6256;63.808;20.336;2023-03-01T01:45:49;1.40;99.90
12384;DHT22;6256;63.808;20.336;2023-03-01T01:48:23;1.40;99.90
12384;DHT22;6256;63.808;20.336;2023-03-01T01:51:00;1.40;99.90
12384;DHT22;6256;63.808;20.336;2023-03-01T01:53:26;1.40;99.90
12384;DHT22;6256;63.808;20.336;2023-03-01T01:55:56;1.40;99.90
12384;DHT22;6256;63.808;20.336;2023-03-01T01:58:24;1.50;99.90
12384;DHT22;6256;63.808;20.336;2023-03-01T02:00:50;1.50;99.90
12384;DHT22;6256;63.808;20.336;2023-03-01T02:03:31;1.50;99.90
12384;DHT22;6256;63.808;20.336;2023-03-01T02:06:12;1.60;99.90
12384;DHT22;6256;63.808;20.336;2023-03-01T02:08:42;1.60;99.90
12384;DHT22;6256;63.808;20.336;2023-03-01T02:11:09;1.70;99.90
12384;DHT22;6256;63.808;20.336;2023-03-01T02:13:36;1.70;99.90
12384;DHT22;6256;63.808;20.336;2023-03-01T02:16:09;1.80;99.90
12384;DHT22;6256;63.808;20.336;2023-03-01T02:18:35;1.80;99.90
12384;DHT22;6256;63.808;20.336;2023-03-01T02:24:34;1.90;99.90
12384;DHT22;6256;63.808;20.336;2023-03-01T02:27:05;1.90;99.90
12384;DHT22;6256;63.808;20.336;2023-03-01T02:29:31;1.90;99.90
12384;DHT22;6256;63.808;20.336;2023-03-01T02:32:02;1.90;99.90
12384;DHT22;6256;63.808;20.336;2023-03-01T02:34:30;1.90;99.90
12384;DHT22;6256;63.808;20.336;2023-03-01T02:37:13;1.90;99.90
12384;DHT22;6256;63.808;20.336;2023-03-01T02:39:48;1.90;99.90
12384;DHT22;6256;63.808;20.336;2023-03-01T02:42:21;1.90;99.90
12384;DHT22;6256;63.808;20.336;2023-03-01T02:44:49;1.90;99.90
12384;DHT22;6256;63.808;20.336;2023-03-01T02:47:15;1.90;99.90
12384;DHT22;6256;63.808;20.336;2023-03-01T02:49:41;1.90;99.90
12384;DHT22;6256;63.808;20.336;2023-03-01T02:57:34;1.80;99.90
12384;DHT22;6256;63.808;20.336;2023-03-01T03:00:05;1.90;99.90
12384;DHT22;6256;63.808;20.336;2023-03-01T03:02:33;1.90;99.90
12384;DHT22;6256;63.808;20.336;2023-03-01T03:05:15;1.90;99.90
12384;DHT22;6256;63.808;20.336;2023-03-01T03:07:43;1.90;99.90
12384;DHT22;6256;63.808;20.336;2023-03-01T03:10:14;1.90;99.90
12384;DHT22;6256;63.808;20.336;2023-03-01T03:12:41;2.00;99.90
12384;DHT22;6256;63.808;20.336;2023-03-01T03:15:08;2.00;99.90
12384;DHT22;6256;63.808;20.336;2023-03-01T03:17:37;2.00;99.90
12384;DHT22;6256;63.808;20.336;2023-03-01T03:20:05;2.00;99.90
12384;DHT22;6256;63.808;20.336;2023-03-01T03:22:35;2.10;99.90
12384;DHT22;6256;63.808;20.336;2023-03-01T03:25:00;2.10;99.90
12384;DHT22;6256;63.808;20.336;2023-03-01T03:27:27;2.20;99.90
12384;DHT22;6256;63.808;20.336;2023-03-01T03:29:53;2.20;99.90
12384;DHT22;6256;63.808;20.336;2023-03-01T03:32:18;2.20;99.90
12384;DHT22;6256;63.808;20.336;2023-03-01T03:34:44;2.20;99.90
12384;DHT22;6256;63.808;20.336;2023-03-01T03:37:10;2.30;99.90
12384;DHT22;6256;63.808;20.336;2023-03-01T03:39:55;2.40;99.90
12384;DHT22;6256;63.808;20.336;2023-03-01T03:42:21;2.40;99.90
12384;DHT22;6256;63.808;20.336;2023-03-01T03:44:48;2.40;99.90
12384;DHT22;6256;63.808;20.336;2023-03-01T03:47:14;2.40;99.90
12384;DHT22;6256;63.808;20.336;2023-03-01T03:49:39;2.40;99.90
12384;DHT22;6256;63.808;20.336;2023-03-01T03:52:05;2.30;99.90
12384;DHT22;6256;63.808;20.336;2023-03-01T03:54:41;2.30;99.90
12384;DHT22;6256;63.808;20.336;2023-03-01T03:57:07;2.30;99.90
12384;DHT22;6256;63.808;20.336;2023-03-01T03:59:33;2.30;99.90
12384;DHT22;6256;63.808;20.336;2023-03-01T04:01:59;2.30;99.90
12384;DHT22;6256;63.808;20.336;2023-03-01T04:04:25;2.20;99.90
12384;DHT22;6256;63.808;20.336;2023-03-01T04:06:50;2.20;99.90
12384;DHT22;6256;63.808;20.336;2023-03-01T04:09:16;2.20;99.90
12384;DHT22;6256;63.808;20.336;2023-03-01T04:11:42;2.20;99.90
12384;DHT22;6256;63.808;20.336;2023-03-01T04:14:08;2.10;99.90
12384;DHT22;6256;63.808;20.336;2023-03-01T04:16:35;2.00;99.90
12384;DHT22;6256;63.808;20.336;2023-03-01T04:19:00;2.10;99.90
12384;DHT22;6256;63.808;20.336;2023-03-01T04:21:26;2.10;99.90
12384;DHT22;6256;63.808;20.336;2023-03-01T04:23:52;2.10;99.90
12384;DHT22;6256;63.808;20.336;2023-03-01T04:26:19;2.10;99.90
12384;DHT22;6256;63.808;20.336;2023-03-01T04:28:45;2.00;99.90
12384;DHT22;6256;63.808;20.336;2023-03-01T04:31:13;2.00;99.90
12384;DHT22;6256;63.808;20.336;2023-03-01T04:33:45;2.00;99.90
12384;DHT22;6256;63.808;20.336;2023-03-01T04:36:12;1.90;99.90
12384;DHT22;6256;63.808;20.336;2023-03-01T04:38:39;1.90;99.90
12384;DHT22;6256;63.808;20.336;2023-03-01T04:41:09;2.00;99.90
12384;DHT22;6256;63.808;20.336;2023-03-01T04:43:36;2.00;99.90
12384;DHT22;6256;63.808;20.336;2023-03-01T04:46:07;2.10;99.90
12384;DHT22;6256;63.808;20.336;2023-03-01T04:48:35;2.20;99.90
12384;DHT22;6256;63.808;20.336;2023-03-01T04:51:02;2.20;99.90
12384;DHT22;6256;63.808;20.336;2023-03-01T04:53:28;2.30;99.90
12384;DHT22;6256;63.808;20.336;2023-03-01T04:55:55;2.30;99.90
12384;DHT22;6256;63.808;20.336;2023-03-01T04:58:23;2.20;99.90
12384;DHT22;6256;63.808;20.336;2023-03-01T05:00:48;2.20;99.90
12384;DHT22;6256;63.808;20.336;2023-03-01T05:03:14;2.20;99.90
12384;DHT22;6256;63.808;20.336;2023-03-01T05:05:44;2.30;99.90
12384;DHT22;6256;63.808;20.336;2023-03-01T05:08:10;2.30;99.90
12384;DHT22;6256;63.808;20.336;2023-03-01T05:10:49;2.20;99.90
12384;DHT22;6256;63.808;20.336;2023-03-01T05:13:15;2.20;99.90
12384;DHT22;6256;63.808;20.336;2023-03-01T05:15:59;2.10;99.90
12384;DHT22;6256;63.808;20.336;2023-03-01T05:18:26;2.10;99.90
12384;DHT22;6256;63.808;20.336;2023-03-01T05:21:01;2.10;99.90
12384;DHT22;6256;63.808;20.336;2023-03-01T05:23:30;2.20;99.90
12384;DHT22;6256;63.808;20.336;2023-03-01T05:26:00;2.20;99.90
12384;DHT22;6256;63.808;20.336;2023-03-01T05:28:26;2.30;99.90
12384;DHT22;6256;63.808;20.336;2023-03-01T05:30:54;2.40;99.90
12384;DHT22;6256;63.808;20.336;2023-03-01T05:33:20;2.50;99.90
12384;DHT22;6256;63.808;20.336;2023-03-01T05:35:48;2.60;99.90
12384;DHT22;6256;63.808;20.336;2023-03-01T05:38:14;2.50;99.90
12384;DHT22;6256;63.808;20.336;2023-03-01T05:40:42;2.50;99.90
12384;DHT22;6256;63.808;20.336;2023-03-01T05:43:09;2.50;99.90
12384;DHT22;6256;63.808;20.336;2023-03-01T05:45:37;2.50;99.90
12384;DHT22;6256;63.808;20.336;2023-03-01T05:48:03;2.60;99.90
12384;DHT22;6256;63.808;20.336;2023-03-01T05:50:33;2.60;99.90
12384;DHT22;6256;63.808;20.336;2023-03-01T05:53:04;2.60;99.90
12384;DHT22;6256;63.808;20.336;2023-03-01T05:55:34;2.60;99.90
12384;DHT22;6256;63.808;20.336;2023-03-01T05:58:01;2.70;99.90
12384;DHT22;6256;63.808;20.336;2023-03-01T06:00:27;2.80;99.90
12384;DHT22;6256;63.808;20.336;2023-03-01T06:02:54;2.90;99.90
12384;DHT22;6256;63.808;20.336;2023-03-01T06:05:21;3.00;99.90
12384;DHT22;6256;63.808;20.336;2023-03-01T06:07:47;3.00;99.90
12384;DHT22;6256;63.808;20.336;2023-03-01T06:10:14;3.00;99.90
12384;DHT22;6256;63.808;20.336;2023-03-01T06:12:41;3.10;99.90
12384;DHT22;6256;63.808;20.336;2023-03-01T06:15:12;3.20;99.90
12384;DHT22;6256;63.808;20.336;2023-03-01T06:17:39;3.20;99.90
12384;DHT22;6256;63.808;20.336;2023-03-01T06:20:17;3.20;99.90
12384;DHT22;6256;63.808;20.336;2023-03-01T06:22:44;3.20;99.90
12384;DHT22;6256;63.808;20.336;2023-03-01T06:25:11;3.30;99.90
12384;DHT22;6256;63.808;20.336;2023-03-01T06:27:38;3.30;99.90
12384;DHT22;6256;63.808;20.336;2023-03-01T06:30:04;3.40;99.90
12384;DHT22;6256;63.808;20.336;2023-03-01T06:32:30;3.40;99.90
12384;DHT22;6256;63.808;20.336;2023-03-01T06:34:57;3.30;99.90
12384;DHT22;6256;63.808;20.336;2023-03-01T06:37:24;3.40;99.90
12384;DHT22;6256;63.808;20.336;2023-03-01T06:39:50;3.40;99.90
12384;DHT22;6256;63.808;20.336;2023-03-01T06:42:16;3.40;99.90
12384;DHT22;6256;63.808;20.336;2023-03-01T06:44:42;3.50;99.90
12384;DHT22;6256;63.808;20.336;2023-03-01T06:47:07;3.40;99.90
12384;DHT22;6256;63.808;20.336;2023-03-01T06:49:33;3.40;99.90
12384;DHT22;6256;63.808;20.336;2023-03-01T06:51:59;3.40;99.90
12384;DHT22;6256;63.808;20.336;2023-03-01T06:54:25;3.40;99.90
12384;DHT22;6256;63.808;20.336;2023-03-01T06:56:50;3.40;99.90
12384;DHT22;6256;63.808;20.336;2023-03-01T06:59:17;3.40;99.90
12384;DHT22;6256;63.808;20.336;2023-03-01T07:01:43;3.40;99.90
12384;DHT22;6256;63.808;20.336;2023-03-01T07:04:09;3.40;99.90
12384;DHT22;6256;63.808;20.336;2023-03-01T07:06:35;3.40;99.90
12384;DHT22;6256;63.808;20.336;2023-03-01T07:09:01;3.40;99.90
12384;DHT22;6256;63.808;20.336;2023-03-01T07:11:26;3.50;99.90
12384;DHT22;6256;63.808;20.336;2023-03-01T07:13:52;3.50;99.90
12384;DHT22;6256;63.808;20.336;2023-03-01T07:16:18;3.50;99.90
12384;DHT22;6256;63.808;20.336;2023-03-01T07:18:45;3.60;99.90
12384;DHT22;6256;63.808;20.336;2023-03-01T07:21:13;3.60;99.90
12384;DHT22;6256;63.808;20.336;2023-03-01T07:23:39;3.60;99.90
12384;DHT22;6256;63.808;20.336;2023-03-01T07:26:05;3.70;99.90
12384;DHT22;6256;63.808;20.336;2023-03-01T07:28:31;3.70;99.90
12384;DHT22;6256;63.808;20.336;2023-03-01T07:31:07;3.80;99.90
12384;DHT22;6256;63.808;20.336;2023-03-01T07:33:33;3.80;99.90
12384;DHT22;6256;63.808;20.336;2023-03-01T07:36:00;3.80;99.90
12384;DHT22;6256;63.808;20.336;2023-03-01T07:38:27;3.90;99.90
12384;DHT22;6256;63.808;20.336;2023-03-01T07:40:53;4.00;99.90
12384;DHT22;6256;63.808;20.336;2023-03-01T07:43:18;4.00;99.90
12384;DHT22;6256;63.808;20.336;2023-03-01T07:45:44;4.10;99.90
12384;DHT22;6256;63.808;20.336;2023-03-01T07:48:10;4.20;99.90
12384;DHT22;6256;63.808;20.336;2023-03-01T07:50:36;4.20;99.90
12384;DHT22;6256;63.808;20.336;2023-03-01T07:53:01;4.30;99.90
12384;DHT22;6256;63.808;20.336;2023-03-01T07:55:28;4.30;99.90
12384;DHT22;6256;63.808;20.336;2023-03-01T07:57:53;4.40;99.90
12384;DHT22;6256;63.808;20.336;2023-03-01T08:00:19;4.40;99.90
12384;DHT22;6256;63.808;20.336;2023-03-01T08:02:46;4.50;99.90
12384;DHT22;6256;63.808;20.336;2023-03-01T08:05:11;4.60;99.90
12384;DHT22;6256;63.808;20.336;2023-03-01T08:07:37;4.60;99.90
12384;DHT22;6256;63.808;20.336;2023-03-01T08:10:04;4.70;99.90
12384;DHT22;6256;63.808;20.336;2023-03-01T08:12:29;4.70;99.90
12384;DHT22;6256;63.808;20.336;2023-03-01T08:14:55;4.70;99.90
12384;DHT22;6256;63.808;20.336;2023-03-01T08:17:25;4.90;99.90
12384;DHT22;6256;63.808;20.336;2023-03-01T08:19:50;4.90;99.90
12384;DHT22;6256;63.808;20.336;2023-03-01T08:22:16;5.00;99.90
12384;DHT22;6256;63.808;20.336;2023-03-01T08:24:42;5.10;99.90
12384;DHT22;6256;63.808;20.336;2023-03-01T08:27:07;5.20;99.90
12384;DHT22;6256;63.808;20.336;2023-03-01T08:29:34;5.10;99.90
12384;DHT22;6256;63.808;20.336;2023-03-01T08:32:01;5.20;99.90
12384;DHT22;6256;63.808;20.336;2023-03-01T08:34:26;5.30;99.90
12384;DHT22;6256;63.808;20.336;2023-03-01T08:36:52;5.20;99.90
12384;DHT22;6256;63.808;20.336;2023-03-01T08:39:19;5.40;99.90
12384;DHT22;6256;63.808;20.336;2023-03-01T08:41:46;5.40;99.90
12384;DHT22;6256;63.808;20.336;2023-03-01T08:44:14;5.50;99.90
12384;DHT22;6256;63.808;20.336;2023-03-01T08:46:42;5.40;99.90
12384;DHT22;6256;63.808;20.336;2023-03-01T08:49:12;5.50;99.90
12384;DHT22;6256;63.808;20.336;2023-03-01T08:51:39;5.60;99.90
12384;DHT22;6256;63.808;20.336;2023-03-01T08:54:07;5.70;99.90
12384;DHT22;6256;63.808;20.336;2023-03-01T08:56:33;5.70;99.90
12384;DHT22;6256;63.808;20.336;2023-03-01T08:58:59;5.70;99.90
12384;DHT22;6256;63.808;20.336;2023-03-01T09:01:27;5.80;99.90
12384;DHT22;6256;63.808;20.336;2023-03-01T09:03:53;5.90;99.90
12384;DHT22;6256;63.808;20.336;2023-03-01T09:06:19;5.90;99.90
12384;DHT22;6256;63.808;20.336;2023-03-01T09:08:47;5.90;99.90
12384;DHT22;6256;63.808;20.336;2023-03-01T09:11:16;5.90;99.90
12384;DHT22;6256;63.808;20.336;2023-03-01T09:13:43;6.00;99.90
12384;DHT22;6256;63.808;20.336;2023-03-01T09:16:10;6.10;99.90
12384;DHT22;6256;63.808;20.336;2023-03-01T09:18:36;6.00;99.90
12384;DHT22;6256;63.808;20.336;2023-03-01T09:21:07;6.10;99.90
12384;DHT22;6256;63.808;20.336;2023-03-01T09:23:39;6.20;99.90
12384;DHT22;6256;63.808;20.336;2023-03-01T09:26:16;6.40;99.90
12384;DHT22;6256;63.808;20.336;2023-03-01T09:28:44;6.40;99.90
12384;DHT22;6256;63.808;20.336;2023-03-01T09:31:11;6.50;99.90
12384;DHT22;6256;63.808;20.336;2023-03-01T09:33:41;6.50;99.90
12384;DHT22;6256;63.808;20.336;2023-03-01T09:36:13;6.60;99.90
12384;DHT22;6256;63.808;20.336;2023-03-01T09:38:39;6.50;99.90
12384;DHT22;6256;63.808;20.336;2023-03-01T09:43:59;6.60;99.90
12384;DHT22;6256;63.808;20.336;2023-03-01T09:46:26;6.70;99.90
12384;DHT22;6256;63.808;20.336;2023-03-01T09:49:05;6.80;99.90
12384;DHT22;6256;63.808;20.336;2023-03-01T09:51:35;6.90;99.90
12384;DHT22;6256;63.808;20.336;2023-03-01T09:54:03;6.90;99.90
12384;DHT22;6256;63.808;20.336;2023-03-01T09:56:39;7.10;99.90
12384;DHT22;6256;63.808;20.336;2023-03-01T09:59:28;7.10;99.90
12384;DHT22;6256;63.808;20.336;2023-03-01T10:02:18;7.30;99.90
12384;DHT22;6256;63.808;20.336;2023-03-01T10:04:49;7.30;99.90
12384;DHT22;6256;63.808;20.336;2023-03-01T10:09:56;7.30;99.90
12384;DHT22;6256;63.808;20.336;2023-03-01T10:12:32;7.30;99.90
12384;DHT22;6256;63.808;20.336;2023-03-01T10:15:16;7.40;99.90
12384;DHT22;6256;63.808;20.336;2023-03-01T10:17:56;7.40;99.90
12384;DHT22;6256;63.808;20.336;2023-03-01T10:20:26;7.50;99.90
12384;DHT22;6256;63.808;20.336;2023-03-01T10:22:52;7.60;99.90
12384;DHT22;6256;63.808;20.336;2023-03-01T10:28:01;7.80;99.90
12384;DHT22;6256;63.808;20.336;2023-03-01T10:30:41;7.80;99.90
12384;DHT22;6256;63.808;20.336;2023-03-01T10:33:20;7.90;99.90
12384;DHT22;6256;63.808;20.336;2023-03-01T10:35:47;8.00;99.90
12384;DHT22;6256;63.808;20.336;2023-03-01T10:38:14;8.10;99.90
12384;DHT22;6256;63.808;20.336;2023-03-01T10:40:56;8.20;99.90
12384;DHT22;6256;63.808;20.336;2023-03-01T10:44:00;8.40;99.90
12384;DHT22;6256;63.808;20.336;2023-03-01T10:46:30;8.50;99.90
12384;DHT22;6256;63.808;20.336;2023-03-01T10:49:17;8.50;99.90
12384;DHT22;6256;63.808;20.336;2023-03-01T10:51:49;8.80;99.90
12384;DHT22;6256;63.808;20.336;2023-03-01T10:54:28;9.00;99.90
12384;DHT22;6256;63.808;20.336;2023-03-01T10:56:57;9.20;99.90
12384;DHT22;6256;63.808;20.336;2023-03-01T10:59:27;9.30;99.90
12384;DHT22;6256;63.808;20.336;2023-03-01T11:02:23;9.50;99.90
12384;DHT22;6256;63.808;20.336;2023-03-01T11:05:13;9.70;99.90
12384;DHT22;6256;63.808;20.336;2023-03-01T11:07:55;9.70;99.90
12384;DHT22;6256;63.808;20.336;2023-03-01T11:10:31;10.10;99.90
12384;DHT22;6256;63.808;20.336;2023-03-01T11:13:17;10.10;99.90
12384;DHT22;6256;63.808;20.336;2023-03-01T11:16:01;10.10;99.90
12384;DHT22;6256;63.808;20.336;2023-03-01T11:18:31;10.20;99.90
12384;DHT22;6256;63.808;20.336;2023-03-01T11:20:58;10.20;99.90
12384;DHT22;6256;63.808;20.336;2023-03-01T11:23:45;10.40;99.90
12384;DHT22;6256;63.808;20.336;2023-03-01T11:26:12;10.50;99.60
12384;DHT22;6256;63.808;20.336;2023-03-01T11:28:40;10.30;99.00
12384;DHT22;6256;63.808;20.336;2023-03-01T11:31:10;10.50;99.40
12384;DHT22;6256;63.808;20.336;2023-03-01T11:38:50;11.00;98.30
12384;DHT22;6256;63.808;20.336;2023-03-01T11:41:31;10.90;96.80
12384;DHT22;6256;63.808;20.336;2023-03-01T11:44:05;11.20;97.30
12384;DHT22;6256;63.808;20.336;2023-03-01T11:46:50;11.20;96.50
12384;DHT22;6256;63.808;20.336;2023-03-01T11:52:25;11.20;96.80
12384;DHT22;6256;63.808;20.336;2023-03-01T12:11:27;10.60;94.80
12384;DHT22;6256;63.808;20.336;2023-03-01T12:20:17;11.00;96.20
12384;DHT22;6256;63.808;20.336;2023-03-01T12:49:49;9.10;97.80
12384;DHT22;6256;63.808;20.336;2023-03-01T12:55:02;9.20;97.30
12384;DHT22;6256;63.808;20.336;2023-03-01T12:57:40;9.30;97.00
12384;DHT22;6256;63.808;20.336;2023-03-01T13:08:47;9.40;97.40
12384;DHT22;6256;63.808;20.336;2023-03-01T13:11:20;9.30;96.70
12384;DHT22;6256;63.808;20.336;2023-03-01T13:13:47;9.30;97.40
12384;DHT22;6256;63.808;20.336;2023-03-01T13:21:40;9.00;97.10
12384;DHT22;6256;63.808;20.336;2023-03-01T13:24:37;9.00;97.30
12384;DHT22;6256;63.808;20.336;2023-03-01T13:29:51;8.80;96.60
12384;DHT22;6256;63.808;20.336;2023-03-01T13:32:26;8.90;97.40
12384;DHT22;6256;63.808;20.336;2023-03-01T13:37:44;9.00;97.30
12384;DHT22;6256;63.808;20.336;2023-03-01T13:42:53;9.40;97.50
12384;DHT22;6256;63.808;20.336;2023-03-01T13:45:32;9.40;96.60
12384;DHT22;6256;63.808;20.336;2023-03-01T13:48:03;9.30;96.30
12384;DHT22;6256;63.808;20.336;2023-03-01T13:50:43;9.40;97.50
12384;DHT22;6256;63.808;20.336;2023-03-01T13:53:16;9.40;97.00
12384;DHT22;6256;63.808;20.336;2023-03-01T13:55:47;9.50;96.70
12384;DHT22;6256;63.808;20.336;2023-03-01T13:58:24;9.50;96.70
12384;DHT22;6256;63.808;20.336;2023-03-01T14:01:02;9.50;97.40
12384;DHT22;6256;63.808;20.336;2023-03-01T14:03:30;9.40;96.20
12384;DHT22;6256;63.808;20.336;2023-03-01T14:06:32;9.30;96.50
12384;DHT22;6256;63.808;20.336;2023-03-01T14:17:35;8.80;97.10
12384;DHT22;6256;63.808;20.336;2023-03-01T14:20:18;8.80;97.50
12384;DHT22;6256;63.808;20.336;2023-03-01T14:22:46;8.80;97.10
12384;DHT22;6256;63.808;20.336;2023-03-01T14:25:31;8.90;96.60
12384;DHT22;6256;63.808;20.336;2023-03-01T14:28:27;8.80;97.00
12384;DHT22;6256;63.808;20.336;2023-03-01T14:30:55;8.70;97.00
12384;DHT22;6256;63.808;20.336;2023-03-01T14:33:28;8.70;96.60
12384;DHT22;6256;63.808;20.336;2023-03-01T14:36:04;8.60;96.70
12384;DHT22;6256;63.808;20.336;2023-03-01T14:38:42;8.50;97.40
12384;DHT22;6256;63.808;20.336;2023-03-01T14:41:11;8.40;97.40
12384;DHT22;6256;63.808;20.336;2023-03-01T14:43:45;8.30;97.50
12384;DHT22;6256;63.808;20.336;2023-03-01T14:46:21;8.20;97.20
12384;DHT22;6256;63.808;20.336;2023-03-01T14:48:52;8.20;97.40
12384;DHT22;6256;63.808;20.336;2023-03-01T14:51:18;8.10;97.80
12384;DHT22;6256;63.808;20.336;2023-03-01T14:53:44;8.00;96.90
12384;DHT22;6256;63.808;20.336;2023-03-01T14:56:15;8.10;97.20
12384;DHT22;6256;63.808;20.336;2023-03-01T14:58:43;8.10;97.50
12384;DHT22;6256;63.808;20.336;2023-03-01T15:01:14;8.00;97.40
12384;DHT22;6256;63.808;20.336;2023-03-01T15:03:43;8.00;97.20
12384;DHT22;6256;63.808;20.336;2023-03-01T15:06:10;8.00;97.30
12384;DHT22;6256;63.808;20.336;2023-03-01T15:08:42;8.10;97.90
12384;DHT22;6256;63.808;20.336;2023-03-01T15:11:31;8.00;97.70
12384;DHT22;6256;63.808;20.336;2023-03-01T15:13:58;8.00;98.30
12384;DHT22;6256;63.808;20.336;2023-03-01T15:16:31;7.90;97.30
12384;DHT22;6256;63.808;20.336;2023-03-01T15:19:02;7.80;97.40
12384;DHT22;6256;63.808;20.336;2023-03-01T15:21:32;7.70;97.40
12384;DHT22;6256;63.808;20.336;2023-03-01T15:24:06;7.60;98.50
12384;DHT22;6256;63.808;20.336;2023-03-01T15:26:58;7.60;98.00
12384;DHT22;6256;63.808;20.336;2023-03-01T15:29:33;7.40;98.80
12384;DHT22;6256;63.808;20.336;2023-03-01T15:32:04;7.30;98.10
12384;DHT22;6256;63.808;20.336;2023-03-01T15:34:35;7.20;98.70
12384;DHT22;6256;63.808;20.336;2023-03-01T15:37:04;7.10;98.20
12384;DHT22;6256;63.808;20.336;2023-03-01T15:39:41;7.00;98.30
12384;DHT22;6256;63.808;20.336;2023-03-01T15:42:11;7.00;99.00
12384;DHT22;6256;63.808;20.336;2023-03-01T15:44:40;6.90;98.90
12384;DHT22;6256;63.808;20.336;2023-03-01T15:49:53;6.80;98.30
12384;DHT22;6256;63.808;20.336;2023-03-01T15:52:35;6.70;99.30
12384;DHT22;6256;63.808;20.336;2023-03-01T15:55:14;6.60;98.70
12384;DHT22;6256;63.808;20.336;2023-03-01T15:57:40;6.60;99.10
12384;DHT22;6256;63.808;20.336;2023-03-01T16:00:09;6.50;99.90
12384;DHT22;6256;63.808;20.336;2023-03-01T16:02:37;6.40;99.30
12384;DHT22;6256;63.808;20.336;2023-03-01T16:05:04;6.40;99.60
12384;DHT22;6256;63.808;20.336;2023-03-01T16:07:29;6.30;99.90
12384;DHT22;6256;63.808;20.336;2023-03-01T16:09:57;6.20;99.90
12384;DHT22;6256;63.808;20.336;2023-03-01T16:12:23;6.20;99.90
12384;DHT22;6256;63.808;20.336;2023-03-01T16:14:49;6.10;99.90
12384;DHT22;6256;63.808;20.336;2023-03-01T16:17:15;6.00;99.90
12384;DHT22;6256;63.808;20.336;2023-03-01T16:19:41;6.00;99.90
12384;DHT22;6256;63.808;20.336;2023-03-01T16:22:09;6.00;99.90
12384;DHT22;6256;63.808;20.336;2023-03-01T16:24:35;5.90;99.90
12384;DHT22;6256;63.808;20.336;2023-03-01T16:27:01;5.90;99.90
12384;DHT22;6256;63.808;20.336;2023-03-01T16:29:27;5.80;99.90
12384;DHT22;6256;63.808;20.336;2023-03-01T16:31:54;5.80;99.90
12384;DHT22;6256;63.808;20.336;2023-03-01T16:34:20;5.70;99.90
12384;DHT22;6256;63.808;20.336;2023-03-01T16:36:47;5.60;99.90
12384;DHT22;6256;63.808;20.336;2023-03-01T16:39:13;5.50;99.90
12384;DHT22;6256;63.808;20.336;2023-03-01T16:41:38;5.50;99.90
12384;DHT22;6256;63.808;20.336;2023-03-01T16:44:04;5.40;99.90
12384;DHT22;6256;63.808;20.336;2023-03-01T16:46:30;5.40;99.90
12384;DHT22;6256;63.808;20.336;2023-03-01T16:48:56;5.30;99.90
12384;DHT22;6256;63.808;20.336;2023-03-01T16:51:23;5.20;99.90
12384;DHT22;6256;63.808;20.336;2023-03-01T16:53:49;5.10;99.90
12384;DHT22;6256;63.808;20.336;2023-03-01T16:56:16;5.10;99.90
12384;DHT22;6256;63.808;20.336;2023-03-01T16:58:43;5.00;99.90
12384;DHT22;6256;63.808;20.336;2023-03-01T17:01:15;5.00;99.90
12384;DHT22;6256;63.808;20.336;2023-03-01T17:03:41;5.00;99.90
12384;DHT22;6256;63.808;20.336;2023-03-01T17:06:11;5.00;99.90
12384;DHT22;6256;63.808;20.336;2023-03-01T17:08:37;5.00;99.90
12384;DHT22;6256;63.808;20.336;2023-03-01T17:11:14;4.90;99.90
12384;DHT22;6256;63.808;20.336;2023-03-01T17:13:41;4.80;99.90
12384;DHT22;6256;63.808;20.336;2023-03-01T17:16:09;4.70;99.90
12384;DHT22;6256;63.808;20.336;2023-03-01T17:18:36;4.70;99.90
12384;DHT22;6256;63.808;20.336;2023-03-01T17:21:03;4.60;99.90
12384;DHT22;6256;63.808;20.336;2023-03-01T17:23:30;4.40;99.90
12384;DHT22;6256;63.808;20.336;2023-03-01T17:25:56;4.50;99.90
12384;DHT22;6256;63.808;20.336;2023-03-01T17:28:25;4.50;99.90
12384;DHT22;6256;63.808;20.336;2023-03-01T17:30:51;4.40;99.90
12384;DHT22;6256;63.808;20.336;2023-03-01T17:33:18;4.30;99.90
12384;DHT22;6256;63.808;20.336;2023-03-01T17:35:44;4.30;99.90
12384;DHT22;6256;63.808;20.336;2023-03-01T17:38:12;4.30;99.90
12384;DHT22;6256;63.808;20.336;2023-03-01T17:40:39;4.20;99.90
12384;DHT22;6256;63.808;20.336;2023-03-01T17:43:06;4.20;99.90
12384;DHT22;6256;63.808;20.336;2023-03-01T17:45:32;4.20;99.90
12384;DHT22;6256;63.808;20.336;2023-03-01T17:47:58;4.20;99.90
12384;DHT22;6256;63.808;20.336;2023-03-01T17:50:24;4.10;99.90